createdAt,value
2019-01-28T00:06:53.819Z,5.97
2019-01-28T00:09:23.359Z,7.47
2019-01-28T00:11:52.978Z,7.53
2019-01-28T00:17:11.015Z,11.53
2019-01-28T00:19:40.506Z,5.33
2019-01-28T00:22:10.047Z,8.57
2019-01-28T00:25:04.579Z,7.03
2019-01-28T00:27:34.098Z,7.07
2019-01-28T00:30:22.855Z,7.27
2019-01-28T00:33:00.081Z,8.67
2019-01-28T00:35:29.715Z,4.37
2019-01-28T00:37:59.432Z,5.00
2019-01-28T00:40:28.946Z,3.50
2019-01-28T00:43:17.494Z,5.50
2019-01-28T00:48:35.609Z,3.57
2019-01-28T00:54:07.845Z,4.10
2019-01-28T00:56:37.384Z,3.53
2019-01-28T00:59:07.056Z,7.67
2019-01-28T01:01:36.753Z,6.35
2019-01-28T01:04:06.231Z,5.23
2019-01-28T01:06:35.852Z,4.33
2019-01-28T01:14:44.268Z,8.17
2019-01-28T01:17:13.801Z,9.90
2019-01-28T01:19:43.438Z,8.20
2019-01-28T01:22:12.958Z,11.63
2019-01-28T01:24:42.589Z,7.30
2019-01-28T01:27:12.220Z,9.00
2019-01-28T01:29:41.769Z,11.28
2019-01-28T01:32:11.276Z,8.80
2019-01-28T01:34:40.795Z,10.20
2019-01-28T01:37:10.287Z,6.90
2019-01-28T01:39:39.815Z,12.98
2019-01-28T01:42:09.330Z,12.30
2019-01-28T01:44:38.881Z,6.80
2019-01-28T01:47:08.409Z,11.57
2019-01-28T01:49:38.034Z,8.13
2019-01-28T01:52:07.571Z,8.97
2019-01-28T01:54:37.140Z,13.57
2019-01-28T01:57:06.631Z,9.50
2019-01-28T01:59:36.186Z,11.13
2019-01-28T02:02:05.739Z,14.70
2019-01-28T02:04:35.217Z,8.80
2019-01-28T02:07:05.113Z,9.40
2019-01-28T02:09:53.808Z,12.05
2019-01-28T02:12:23.343Z,6.83
2019-01-28T02:14:52.890Z,8.77
2019-01-28T02:17:22.492Z,10.67
2019-01-28T02:20:11.322Z,11.40
2019-01-28T02:22:40.844Z,8.20
2019-01-28T02:25:10.852Z,13.60
2019-01-28T02:27:40.378Z,10.37
2019-01-28T02:30:11.754Z,17.10
2019-01-28T02:32:41.320Z,8.80
2019-01-28T02:35:10.941Z,10.00
2019-01-28T02:37:40.553Z,6.40
2019-01-28T02:40:12.912Z,7.83
2019-01-28T02:43:02.140Z,9.40
2019-01-28T02:45:33.318Z,7.30
2019-01-28T02:48:02.773Z,7.10
2019-01-28T02:50:32.314Z,6.03
2019-01-28T02:53:01.825Z,11.80
2019-01-28T02:55:31.315Z,4.60
2019-01-28T02:58:19.916Z,6.20
2019-01-28T03:00:49.535Z,8.70
2019-01-28T03:03:19.321Z,8.10
2019-01-28T03:05:48.833Z,15.20
2019-01-28T03:11:31.611Z,9.58
2019-01-28T03:19:36.607Z,5.37
2019-01-28T03:22:06.399Z,5.27
2019-01-28T03:24:36.003Z,15.23
2019-01-28T03:27:05.636Z,6.33
2019-01-28T03:29:35.099Z,7.63
2019-01-28T03:32:04.666Z,13.33
2019-01-28T03:34:34.143Z,5.93
2019-01-28T03:37:03.614Z,4.77
2019-01-28T03:39:33.099Z,9.40
2019-01-28T03:45:06.335Z,7.13
2019-01-28T03:47:35.895Z,5.70
2019-01-28T03:50:45.871Z,10.93
2019-01-28T03:53:15.399Z,5.83
2019-01-28T03:55:44.879Z,4.50
2019-01-28T03:58:26.145Z,5.63
2019-01-28T04:00:55.622Z,4.27
2019-01-28T04:03:25.180Z,5.97
2019-01-28T04:05:54.655Z,7.07
2019-01-28T04:08:43.560Z,6.80
2019-01-28T04:11:13.121Z,9.50
2019-01-28T04:13:42.668Z,4.23
2019-01-28T04:16:12.220Z,6.70
2019-01-28T04:18:41.691Z,4.80
2019-01-28T04:21:11.222Z,5.67
2019-01-28T04:23:40.692Z,5.80
2019-01-28T04:26:10.182Z,6.20
2019-01-28T04:31:28.345Z,5.47
2019-01-28T04:33:57.825Z,5.43
2019-01-28T04:39:16.149Z,4.90
2019-01-28T04:41:45.712Z,6.70
2019-01-28T04:44:15.186Z,3.67
2019-01-28T04:46:44.656Z,6.63
2019-01-28T04:49:14.135Z,5.17
2019-01-28T04:51:43.625Z,5.47
2019-01-28T04:54:13.121Z,4.60
2019-01-28T04:56:42.588Z,5.67
2019-01-28T04:59:12.075Z,4.70
2019-01-28T05:01:41.760Z,5.37
2019-01-28T05:04:11.243Z,4.22
2019-01-28T05:06:40.721Z,4.77
2019-01-28T05:09:10.347Z,5.37
2019-01-28T05:11:40.223Z,4.60
2019-01-28T05:14:09.692Z,6.53
2019-01-28T05:16:39.298Z,10.10
2019-01-28T05:19:09.084Z,6.10
2019-01-28T05:21:38.611Z,4.13
2019-01-28T05:24:08.158Z,4.53
2019-01-28T05:26:37.788Z,3.70
2019-01-28T05:29:26.592Z,3.35
2019-01-28T05:31:56.146Z,6.10
2019-01-28T05:34:44.854Z,4.83
2019-01-28T05:39:55.308Z,4.60
2019-01-28T05:45:27.873Z,5.22
2019-01-28T05:47:57.794Z,6.07
2019-01-28T05:50:29.232Z,5.57
2019-01-28T05:53:17.660Z,5.10
2019-01-28T05:55:47.185Z,3.97
2019-01-28T06:01:05.313Z,5.53
2019-01-28T06:03:34.832Z,10.80
2019-01-28T06:06:04.442Z,5.27
2019-01-28T06:08:33.900Z,6.47
2019-01-28T06:11:15.606Z,6.77
2019-01-28T06:13:45.101Z,6.43
2019-01-28T06:16:14.655Z,6.87
2019-01-28T06:18:44.163Z,4.10
2019-01-28T06:21:13.664Z,5.80
2019-01-28T06:23:43.136Z,3.62
2019-01-28T06:26:12.823Z,3.50
2019-01-28T06:28:42.451Z,5.67
2019-01-28T06:31:11.941Z,4.50
2019-01-28T06:33:41.455Z,9.53
2019-01-28T06:36:10.922Z,5.60
2019-01-28T06:38:40.415Z,3.63
2019-01-28T06:41:09.919Z,3.07
2019-01-28T06:43:39.415Z,3.27
2019-01-28T06:46:28.215Z,2.40
2019-01-28T06:48:57.720Z,3.10
2019-01-28T06:51:27.209Z,2.27
2019-01-28T06:53:56.678Z,2.40
2019-01-28T06:56:38.607Z,2.70
2019-01-28T06:59:09.207Z,2.17
2019-01-28T07:01:38.681Z,2.50
2019-01-28T07:04:08.239Z,5.47
2019-01-28T07:06:37.792Z,7.23
2019-01-28T07:11:49.035Z,2.58
2019-01-28T07:14:18.505Z,3.63
2019-01-28T07:19:42.580Z,2.97
2019-01-28T07:22:12.160Z,2.57
2019-01-28T07:24:41.703Z,2.27
2019-01-28T07:27:11.247Z,2.15
2019-01-28T07:29:40.959Z,2.03
2019-01-28T07:32:10.576Z,2.33
2019-01-28T07:34:40.063Z,3.17
2019-01-28T07:37:09.562Z,2.83
2019-01-28T07:39:39.055Z,3.30
2019-01-28T07:42:27.811Z,5.37
2019-01-28T07:45:19.634Z,1.70
2019-01-28T07:47:49.182Z,2.10
2019-01-28T07:50:18.727Z,2.20
2019-01-28T07:52:48.193Z,1.87
2019-01-28T07:55:17.854Z,2.65
2019-01-28T07:57:47.428Z,2.17
2019-01-28T08:00:19.583Z,2.60
2019-01-28T08:02:49.109Z,3.10
2019-01-28T08:05:18.887Z,3.17
2019-01-28T08:07:48.502Z,2.47
2019-01-28T08:10:18.244Z,3.70
2019-01-28T08:12:47.951Z,2.40
2019-01-28T08:15:18.866Z,1.57
2019-01-28T08:17:48.646Z,2.80
2019-01-28T08:20:19.118Z,1.63
2019-01-28T08:28:43.020Z,1.50
2019-01-28T08:31:12.592Z,2.60
2019-01-28T08:33:42.180Z,1.73
2019-01-28T08:36:11.635Z,2.58
2019-01-28T08:38:41.129Z,2.37
2019-01-28T08:41:10.750Z,6.10
2019-01-28T08:43:40.201Z,1.70
2019-01-28T08:46:09.921Z,1.80
2019-01-28T08:51:53.068Z,1.50
2019-01-28T08:54:22.553Z,2.10
2019-01-28T08:56:57.336Z,1.70
2019-01-28T08:59:26.871Z,1.60
2019-01-28T09:02:15.617Z,2.17
2019-01-28T09:04:46.038Z,2.50
2019-01-28T09:07:15.921Z,1.77
2019-01-28T09:12:47.828Z,1.50
2019-01-28T09:18:26.275Z,2.40
2019-01-28T09:21:10.455Z,5.60
2019-01-28T09:23:40.018Z,1.52
2019-01-28T09:26:09.629Z,2.20
2019-01-28T09:28:39.097Z,1.60
2019-01-28T09:31:27.669Z,1.53
2019-01-28T09:33:58.880Z,1.73
2019-01-28T09:36:28.439Z,1.50
2019-01-28T09:38:57.917Z,1.25
2019-01-28T09:41:27.455Z,1.43
2019-01-28T09:43:58.567Z,1.32
2019-01-28T09:46:28.141Z,1.40
2019-01-28T09:48:57.747Z,6.23
2019-01-28T09:51:27.244Z,1.53
2019-01-28T09:53:56.703Z,1.30
2019-01-28T09:56:45.218Z,1.30
2019-01-28T09:59:14.780Z,1.70
2019-01-28T10:01:44.255Z,2.23
2019-01-28T10:04:13.731Z,2.00
2019-01-28T10:06:43.260Z,1.30
2019-01-28T10:09:12.717Z,1.53
2019-01-28T10:11:42.306Z,1.37
2019-01-28T10:14:11.795Z,2.20
2019-01-28T10:16:53.601Z,1.27
2019-01-28T10:19:23.115Z,1.30
2019-01-28T10:21:52.675Z,1.50
2019-01-28T10:25:00.533Z,1.30
2019-01-28T10:27:30.054Z,1.27
2019-01-28T10:29:59.613Z,2.10
2019-01-28T10:32:41.460Z,2.57
2019-01-28T10:37:59.772Z,3.70
2019-01-28T10:40:30.897Z,1.85
2019-01-28T10:43:00.521Z,2.45
2019-01-28T10:45:30.030Z,1.32
2019-01-28T10:48:00.934Z,1.90
2019-01-28T10:50:55.578Z,1.40
2019-01-28T10:53:50.397Z,2.90
2019-01-28T10:56:19.968Z,1.50
2019-01-28T10:58:49.467Z,1.50
2019-01-28T11:01:19.009Z,1.30
2019-01-28T11:03:48.696Z,1.23
2019-01-28T11:06:18.243Z,1.67
2019-01-28T11:08:47.901Z,1.63
2019-01-28T11:11:17.551Z,1.47
2019-01-28T11:13:47.261Z,1.70
2019-01-28T11:16:35.969Z,1.70
2019-01-28T11:19:24.576Z,1.73
2019-01-28T11:21:54.186Z,1.93
2019-01-28T11:24:23.713Z,1.57
2019-01-28T11:26:53.819Z,1.27
2019-01-28T11:29:23.464Z,1.70
2019-01-28T11:31:53.107Z,1.57
2019-01-28T11:34:22.621Z,1.77
2019-01-28T11:36:52.094Z,1.63
2019-01-28T11:39:21.711Z,1.60
2019-01-28T11:42:10.467Z,1.83
2019-01-28T11:44:40.076Z,2.55
2019-01-28T11:47:09.769Z,1.40
2019-01-28T11:49:39.294Z,2.67
2019-01-28T11:52:08.767Z,2.70
2019-01-28T11:54:38.337Z,4.12
2019-01-28T11:57:07.868Z,6.43
2019-01-28T11:59:37.497Z,6.70
2019-01-28T12:02:07.274Z,1.73
2019-01-28T12:04:36.847Z,2.63
2019-01-28T12:07:06.481Z,1.72
2019-01-28T12:09:36.058Z,5.47
2019-01-28T12:12:05.709Z,4.57
2019-01-28T12:14:35.216Z,5.95
2019-01-28T12:17:04.845Z,6.40
2019-01-28T12:19:34.570Z,4.03
2019-01-28T12:22:04.189Z,1.80
2019-01-28T12:24:33.673Z,2.60
2019-01-28T12:27:22.522Z,2.22
2019-01-28T12:29:52.911Z,1.70
2019-01-28T12:32:23.010Z,3.35
2019-01-28T12:34:53.042Z,3.62
2019-01-28T12:37:22.967Z,2.87
2019-01-28T12:39:52.981Z,3.50
2019-01-28T12:42:23.512Z,5.60
2019-01-28T12:44:53.122Z,2.30
2019-01-28T12:47:23.073Z,1.20
2019-01-28T12:49:53.105Z,2.07
2019-01-28T12:52:23.057Z,1.40
2019-01-28T12:54:52.962Z,1.82
2019-01-28T12:57:23.175Z,2.15
2019-01-28T12:59:52.952Z,1.80
2019-01-28T13:02:22.990Z,1.98
2019-01-28T13:04:53.068Z,2.27
2019-01-28T13:07:23.012Z,1.60
2019-01-28T13:09:53.069Z,2.47
2019-01-28T13:12:23.257Z,1.50
2019-01-28T13:14:53.946Z,1.80
2019-01-28T13:17:23.962Z,2.05
2019-01-28T13:19:53.855Z,2.15
2019-01-28T13:22:23.973Z,2.22
2019-01-28T13:24:53.911Z,1.77
2019-01-28T13:31:13.106Z,2.60
2019-01-28T13:33:42.777Z,2.23
2019-01-28T13:36:12.289Z,3.97
2019-01-28T13:38:45.000Z,4.55
2019-01-28T13:41:14.571Z,2.60
2019-01-28T13:43:44.273Z,4.60
2019-01-28T13:46:32.776Z,3.35
2019-01-28T13:49:02.335Z,3.87
2019-01-28T13:51:31.848Z,3.22
2019-01-28T13:54:01.405Z,3.90
2019-01-28T13:56:30.877Z,4.17
2019-01-28T13:59:00.471Z,3.37
2019-01-28T14:01:29.950Z,3.23
2019-01-28T14:03:59.623Z,4.73
2019-01-28T14:06:29.099Z,3.30
2019-01-28T14:08:58.730Z,2.70
2019-01-28T14:11:28.238Z,3.67
2019-01-28T14:16:52.108Z,3.33
2019-01-28T14:19:21.681Z,3.33
2019-01-28T14:22:29.327Z,6.20
2019-01-28T14:24:58.841Z,5.07
2019-01-28T14:27:28.307Z,4.75
2019-01-28T14:29:57.917Z,6.03
2019-01-28T14:32:27.473Z,9.33
2019-01-28T14:34:57.037Z,8.85
2019-01-28T14:37:26.624Z,6.67
2019-01-28T14:39:56.118Z,4.97
2019-01-28T14:42:25.662Z,8.07
2019-01-28T14:44:55.172Z,9.63
2019-01-28T14:47:24.914Z,8.68
2019-01-28T14:49:54.946Z,10.30
2019-01-28T14:52:25.190Z,9.10
2019-01-28T14:54:56.374Z,15.63
2019-01-28T14:57:45.180Z,9.60
2019-01-28T15:00:55.818Z,12.40
2019-01-28T15:03:25.393Z,12.47
2019-01-28T15:05:54.889Z,12.20
2019-01-28T15:08:24.898Z,16.00
2019-01-28T15:10:55.126Z,14.25
2019-01-28T15:13:25.043Z,12.23
2019-01-28T15:15:54.977Z,14.30
2019-01-28T15:18:25.046Z,14.55
2019-01-28T15:20:55.015Z,20.10
2019-01-28T15:23:24.958Z,15.58
2019-01-28T15:25:55.109Z,16.10
2019-01-28T15:28:24.995Z,14.75
2019-01-28T15:30:55.083Z,20.10
2019-01-28T15:33:25.246Z,16.75
2019-01-28T15:35:55.204Z,19.80
2019-01-28T15:38:25.161Z,18.00
2019-01-28T15:41:14.409Z,11.43
2019-01-28T15:46:57.491Z,16.10
2019-01-28T15:49:27.023Z,15.58
2019-01-28T15:51:56.636Z,19.07
2019-01-28T15:54:26.186Z,15.70
2019-01-28T15:56:55.780Z,21.97
2019-01-28T15:59:25.278Z,17.43
2019-01-28T16:01:55.235Z,15.50
2019-01-28T16:04:44.017Z,23.33
2019-01-28T16:07:13.511Z,19.00
2019-01-28T16:09:42.988Z,17.48
2019-01-28T16:12:12.507Z,20.50
2019-01-28T16:14:42.005Z,16.40
2019-01-28T16:17:11.508Z,20.43
2019-01-28T16:19:40.978Z,23.80
2019-01-28T16:22:10.554Z,21.17
2019-01-28T16:24:40.039Z,22.52
2019-01-28T16:27:28.828Z,19.30
2019-01-28T16:29:58.390Z,14.28
2019-01-28T16:32:28.005Z,14.63
2019-01-28T16:35:16.836Z,16.77
2019-01-28T16:37:46.452Z,17.75
2019-01-28T16:40:17.870Z,11.83
2019-01-28T16:42:47.582Z,15.03
2019-01-28T16:48:19.380Z,9.10
2019-01-28T16:50:48.978Z,12.83
2019-01-28T16:53:18.449Z,14.23
2019-01-28T16:55:48.267Z,13.33
2019-01-28T17:04:14.236Z,17.80
2019-01-28T17:06:43.760Z,16.43
2019-01-28T17:09:32.535Z,19.07
2019-01-28T17:12:02.143Z,11.57
2019-01-28T17:14:31.717Z,17.03
2019-01-28T17:19:42.122Z,17.23
2019-01-28T17:22:11.699Z,22.00
2019-01-28T17:24:41.435Z,18.00
2019-01-28T17:27:12.814Z,15.53
2019-01-28T17:29:42.429Z,15.53
2019-01-28T17:32:11.982Z,11.83
2019-01-28T17:34:41.546Z,12.13
2019-01-28T17:37:11.299Z,12.73
2019-01-28T17:39:40.971Z,6.63
2019-01-28T17:42:10.683Z,5.47
2019-01-28T17:44:52.521Z,3.40
2019-01-28T17:47:22.177Z,3.07
2019-01-28T17:49:51.712Z,4.50
2019-01-28T17:52:33.826Z,4.27
2019-01-28T17:55:15.555Z,4.43
2019-01-28T17:57:45.319Z,3.90
2019-01-28T18:03:27.145Z,3.20
2019-01-28T18:05:58.586Z,2.60
2019-01-28T18:11:09.873Z,3.85
2019-01-28T18:13:39.350Z,3.03
2019-01-28T18:16:08.889Z,2.70
2019-01-28T18:18:38.481Z,3.77
2019-01-28T18:21:07.988Z,3.07
2019-01-28T18:23:59.661Z,5.60
2019-01-28T18:29:37.168Z,4.70
2019-01-28T18:32:06.774Z,3.17
2019-01-28T18:34:36.319Z,3.47
2019-01-28T18:37:24.961Z,3.58
2019-01-28T18:39:54.574Z,5.20
2019-01-28T18:42:24.064Z,3.27
2019-01-28T18:44:53.747Z,2.43
2019-01-28T18:47:23.279Z,2.50
2019-01-28T18:49:53.026Z,3.90
2019-01-28T18:52:34.847Z,2.90
2019-01-28T18:55:05.163Z,4.70
2019-01-28T18:57:34.728Z,3.83
2019-01-28T19:00:25.507Z,3.73
2019-01-28T19:02:55.563Z,4.00
2019-01-28T19:06:04.909Z,3.25
2019-01-28T19:08:53.650Z,4.17
2019-01-28T19:11:30.006Z,3.93
2019-01-28T19:14:05.451Z,5.15
2019-01-28T19:17:15.004Z,2.40
2019-01-28T19:19:54.887Z,2.92
2019-01-28T19:22:25.857Z,2.73
2019-01-28T19:24:55.476Z,6.53
2019-01-28T19:27:25.135Z,3.97
2019-01-28T19:29:54.634Z,2.90
2019-01-28T19:32:24.168Z,3.83
2019-01-28T19:34:53.725Z,11.30
2019-01-28T19:37:23.263Z,3.13
2019-01-28T19:39:52.784Z,3.37
2019-01-28T19:42:22.345Z,3.08
2019-01-28T19:44:51.819Z,3.40
2019-01-28T19:47:21.426Z,4.73
2019-01-28T19:49:50.884Z,3.37
2019-01-28T19:52:20.372Z,2.60
2019-01-28T19:54:50.054Z,5.37
2019-01-28T19:57:19.528Z,3.93
2019-01-28T19:59:49.074Z,4.77
2019-01-28T20:02:18.546Z,3.43
2019-01-28T20:04:48.039Z,5.37
2019-01-28T20:07:17.495Z,4.50
2019-01-28T20:09:46.984Z,5.17
2019-01-28T20:12:16.579Z,4.53
2019-01-28T20:14:46.223Z,4.27
2019-01-28T20:17:16.001Z,4.90
2019-01-28T20:19:45.589Z,5.47
2019-01-28T20:22:15.132Z,5.47
2019-01-28T20:24:44.875Z,5.97
2019-01-28T20:27:14.425Z,3.77
2019-01-28T20:29:43.907Z,3.80
2019-01-28T20:32:15.122Z,6.57
2019-01-28T20:34:56.498Z,5.20
2019-01-28T20:37:26.952Z,6.87
2019-01-28T20:39:56.478Z,7.37
2019-01-28T20:42:26.152Z,8.20
2019-01-28T20:45:14.758Z,6.13
2019-01-28T20:47:44.290Z,6.03
2019-01-28T20:50:33.038Z,5.25
2019-01-28T20:53:02.540Z,7.47
2019-01-28T20:55:32.052Z,8.40
2019-01-28T20:58:02.296Z,4.53
2019-01-28T21:03:13.718Z,8.67
2019-01-28T21:05:43.387Z,15.33
2019-01-28T21:08:12.956Z,7.78
2019-01-28T21:10:42.578Z,6.73
2019-01-28T21:13:12.138Z,5.30
2019-01-28T21:15:41.812Z,6.50
2019-01-28T21:18:30.405Z,5.27
2019-01-28T21:20:59.914Z,11.20
2019-01-28T21:23:29.406Z,8.07
2019-01-28T21:25:58.947Z,5.57
2019-01-28T21:28:47.735Z,5.40
2019-01-28T21:31:17.282Z,6.07
2019-01-28T21:33:46.847Z,5.00
2019-01-28T21:36:54.713Z,7.53
2019-01-28T21:39:43.831Z,3.93
2019-01-28T21:42:25.741Z,5.55
2019-01-28T21:44:55.415Z,10.53
2019-01-28T21:47:25.025Z,7.70
2019-01-28T21:50:00.636Z,7.80
2019-01-28T21:52:30.323Z,6.83
2019-01-28T21:55:00.252Z,5.57
2019-01-28T21:57:35.285Z,8.08
2019-01-28T22:00:25.625Z,5.53
2019-01-28T22:02:55.406Z,6.27
2019-01-28T22:05:24.972Z,6.10
2019-01-28T22:08:13.826Z,10.87
2019-01-28T22:10:43.422Z,5.80
2019-01-28T22:13:12.988Z,5.00
2019-01-28T22:15:42.476Z,5.77
2019-01-28T22:18:12.009Z,7.15
2019-01-28T22:20:41.537Z,5.95
2019-01-28T22:23:11.011Z,4.97
2019-01-28T22:25:40.584Z,11.80
2019-01-28T22:28:10.206Z,6.87
2019-01-28T22:30:39.733Z,6.17
2019-01-28T22:33:09.296Z,5.57
2019-01-28T22:35:38.992Z,4.90
2019-01-28T22:38:22.680Z,5.00
2019-01-28T22:40:52.247Z,5.63
2019-01-28T22:43:21.726Z,5.03
2019-01-28T22:45:52.340Z,3.60
2019-01-28T22:48:21.862Z,4.27
2019-01-28T22:50:51.529Z,4.43
2019-01-28T22:53:21.058Z,6.53
2019-01-28T22:55:50.733Z,5.30
2019-01-28T22:58:20.208Z,12.70
2019-01-28T23:01:28.475Z,5.83
2019-01-28T23:03:58.093Z,11.53
2019-01-28T23:06:27.746Z,3.97
2019-01-28T23:08:57.264Z,11.93
2019-01-28T23:12:06.642Z,6.80
2019-01-28T23:14:36.172Z,7.93
2019-01-28T23:17:05.760Z,4.60
2019-01-28T23:19:41.193Z,2.70
2019-01-28T23:22:16.208Z,5.07
2019-01-28T23:25:01.041Z,2.93
2019-01-28T23:27:30.556Z,2.43
2019-01-28T23:30:00.048Z,2.97
2019-01-28T23:32:29.617Z,5.90
2019-01-28T23:34:59.113Z,6.23
2019-01-28T23:37:28.787Z,10.67
2019-01-28T23:39:58.327Z,5.27
2019-01-28T23:42:29.419Z,4.13
2019-01-28T23:44:58.907Z,3.60
2019-01-28T23:47:28.568Z,3.08
2019-01-28T23:49:59.709Z,3.50
2019-01-28T23:52:29.291Z,6.90
2019-01-28T23:54:58.778Z,4.77
2019-01-28T23:57:28.290Z,8.57
2019-01-28T23:59:57.785Z,4.30
